createdAt,value
2022-10-09T00:01:01.854Z,10.43
2022-10-09T00:03:28.600Z,11.20
2022-10-09T00:05:55.311Z,15.48
2022-10-09T00:08:22.058Z,11.85
2022-10-09T00:10:49.755Z,11.00
2022-10-09T00:13:16.367Z,10.48
2022-10-09T00:15:45.212Z,10.77
2022-10-09T00:18:16.234Z,11.85
2022-10-09T00:20:45.084Z,13.80
2022-10-09T00:23:17.455Z,12.93
2022-10-09T00:26:12.034Z,11.38
2022-10-09T00:28:39.080Z,10.38
2022-10-09T00:31:09.875Z,9.73
2022-10-09T00:33:37.277Z,16.30
2022-10-09T00:36:09.713Z,11.70
2022-10-09T00:38:36.830Z,9.88
2022-10-09T00:41:03.665Z,12.40
2022-10-09T00:44:00.884Z,10.70
2022-10-09T00:46:42.075Z,8.70
2022-10-09T00:49:14.811Z,12.40
2022-10-09T00:51:44.175Z,11.75
2022-10-09T00:54:15.611Z,15.10
2022-10-09T00:56:42.762Z,11.93
2022-10-09T00:59:10.749Z,11.88
2022-10-09T01:01:39.178Z,10.95
2022-10-09T01:04:05.811Z,11.07
2022-10-09T01:07:11.967Z,9.88
2022-10-09T01:09:59.701Z,11.27
2022-10-09T01:12:49.172Z,10.57
2022-10-09T01:15:23.182Z,10.65
2022-10-09T01:17:49.709Z,12.07
2022-10-09T01:20:31.006Z,11.20
2022-10-09T01:23:51.157Z,11.65
2022-10-09T01:26:34.016Z,13.27
2022-10-09T01:29:06.835Z,12.80
2022-10-09T01:31:39.425Z,12.50
2022-10-09T01:34:07.872Z,11.55
2022-10-09T01:36:36.415Z,11.27
2022-10-09T01:39:06.606Z,13.13
2022-10-09T01:41:33.688Z,10.98
2022-10-09T01:44:00.597Z,10.13
2022-10-09T01:46:28.940Z,11.23
2022-10-09T01:49:23.216Z,11.00
2022-10-09T01:52:05.624Z,11.50
2022-10-09T01:57:06.985Z,12.30
2022-10-09T01:59:39.402Z,10.05
2022-10-09T02:02:07.722Z,10.55
2022-10-09T02:04:37.204Z,10.18
2022-10-09T02:07:06.057Z,11.02
2022-10-09T02:09:33.901Z,13.05
2022-10-09T02:12:04.617Z,11.13
2022-10-09T02:14:31.261Z,11.98
2022-10-09T02:17:18.757Z,9.70
2022-10-09T02:19:56.677Z,9.93
2022-10-09T02:22:30.138Z,10.98
2022-10-09T02:25:03.222Z,9.82
2022-10-09T02:27:30.743Z,9.57
2022-10-09T02:29:59.095Z,9.95
2022-10-09T02:32:25.779Z,10.65
2022-10-09T02:34:52.754Z,11.77
2022-10-09T02:37:19.354Z,10.43
2022-10-09T02:39:46.131Z,10.90
2022-10-09T02:42:12.770Z,11.68
2022-10-09T02:44:39.488Z,11.63
2022-10-09T02:47:06.230Z,11.25
2022-10-09T02:49:32.887Z,10.20
2022-10-09T02:51:59.771Z,11.52
2022-10-09T02:54:26.476Z,11.00
2022-10-09T02:56:53.146Z,11.38
2022-10-09T02:59:19.702Z,10.43
2022-10-09T03:01:46.610Z,10.57
2022-10-09T03:04:13.422Z,10.50
2022-10-09T03:06:40.250Z,9.73
2022-10-09T03:09:06.836Z,8.82
2022-10-09T03:11:33.568Z,8.93
2022-10-09T03:14:00.813Z,10.10
2022-10-09T03:16:28.249Z,10.10
2022-10-09T03:18:55.917Z,11.07
2022-10-09T03:21:27.431Z,11.38
2022-10-09T03:23:54.868Z,9.75
2022-10-09T03:26:23.691Z,11.23
2022-10-09T03:28:52.498Z,13.18
2022-10-09T03:31:46.933Z,9.85
2022-10-09T03:34:08.264Z,11.00
2022-10-09T03:36:34.929Z,10.88
2022-10-09T03:39:01.508Z,11.07
2022-10-09T03:41:28.155Z,10.95
2022-10-09T03:43:54.909Z,11.95
2022-10-09T03:46:21.640Z,10.95
2022-10-09T03:48:48.238Z,10.60
2022-10-09T03:51:14.920Z,9.30
2022-10-09T03:53:41.494Z,10.82
2022-10-09T03:56:08.075Z,12.18
2022-10-09T03:58:34.649Z,12.68
2022-10-09T04:01:01.571Z,10.50
2022-10-09T04:03:29.210Z,10.90
2022-10-09T04:05:55.888Z,17.33
2022-10-09T04:08:22.422Z,13.27
2022-10-09T04:10:49.069Z,13.15
2022-10-09T04:13:15.898Z,13.27
2022-10-09T04:15:50.244Z,12.50
2022-10-09T04:18:17.088Z,11.00
2022-10-09T04:20:55.630Z,12.90
2022-10-09T04:23:25.318Z,11.35
2022-10-09T04:25:56.526Z,11.23
2022-10-09T04:28:23.974Z,11.65
2022-10-09T04:30:50.916Z,11.20
2022-10-09T04:33:17.804Z,12.20
2022-10-09T04:35:45.922Z,12.80
2022-10-09T04:38:12.850Z,11.68
2022-10-09T04:40:39.876Z,13.35
2022-10-09T04:43:06.647Z,12.77
2022-10-09T04:45:33.314Z,14.45
2022-10-09T04:48:00.131Z,12.30
2022-10-09T04:50:26.679Z,13.88
2022-10-09T04:52:53.225Z,13.50
2022-10-09T04:55:19.876Z,13.73
2022-10-09T04:57:46.653Z,14.73
2022-10-09T05:00:13.989Z,15.30
2022-10-09T05:02:40.606Z,15.57
2022-10-09T05:05:07.614Z,14.45
2022-10-09T05:07:34.187Z,14.13
2022-10-09T05:10:00.735Z,12.50
2022-10-09T05:12:27.348Z,12.10
2022-10-09T05:14:53.948Z,12.50
2022-10-09T05:17:23.289Z,12.27
2022-10-09T05:19:50.189Z,11.48
2022-10-09T05:22:16.929Z,11.02
2022-10-09T05:24:43.573Z,9.68
2022-10-09T05:27:10.280Z,9.20
2022-10-09T05:29:37.013Z,9.88
2022-10-09T05:32:03.744Z,10.50
2022-10-09T05:34:30.478Z,9.88
2022-10-09T05:36:57.082Z,9.93
2022-10-09T05:39:23.798Z,9.85
2022-10-09T05:41:50.460Z,9.57
2022-10-09T05:44:17.144Z,10.57
2022-10-09T05:46:43.954Z,9.45
2022-10-09T05:49:12.072Z,8.70
2022-10-09T05:51:41.616Z,9.27
2022-10-09T05:54:12.867Z,9.45
2022-10-09T05:56:39.714Z,9.00
2022-10-09T05:59:13.951Z,11.05
2022-10-09T06:01:46.906Z,10.63
2022-10-09T06:04:19.304Z,9.70
2022-10-09T06:06:48.407Z,5.63
2022-10-09T06:09:17.156Z,7.40
2022-10-09T06:11:44.801Z,6.40
2022-10-09T06:14:13.525Z,7.00
2022-10-09T06:16:43.402Z,7.57
2022-10-09T06:19:12.510Z,6.93
2022-10-09T06:21:39.620Z,7.07
2022-10-09T06:24:07.433Z,6.03
2022-10-09T06:26:34.996Z,5.85
2022-10-09T06:29:03.023Z,7.80
2022-10-09T06:31:32.485Z,5.57
2022-10-09T06:34:01.109Z,6.22
2022-10-09T06:36:30.941Z,7.18
2022-10-09T06:38:59.634Z,6.68
2022-10-09T06:41:27.986Z,8.02
2022-10-09T06:43:57.330Z,7.72
2022-10-09T06:46:27.635Z,7.05
2022-10-09T06:48:54.414Z,7.20
2022-10-09T06:51:24.439Z,7.65
2022-10-09T06:53:53.193Z,9.05
2022-10-09T06:56:21.603Z,8.45
2022-10-09T06:58:48.865Z,6.57
2022-10-09T07:01:34.281Z,7.75
2022-10-09T07:04:09.292Z,7.38
2022-10-09T07:06:42.182Z,7.05
2022-10-09T07:09:11.663Z,6.95
2022-10-09T07:11:42.995Z,8.77
2022-10-09T07:14:11.370Z,7.38
2022-10-09T07:16:40.557Z,10.68
2022-10-09T07:19:11.340Z,6.88
2022-10-09T07:21:40.232Z,9.27
2022-10-09T07:24:07.789Z,7.53
2022-10-09T07:26:37.233Z,8.43
2022-10-09T07:29:06.404Z,8.68
2022-10-09T07:31:33.105Z,10.35
2022-10-09T07:34:00.336Z,8.18
2022-10-09T07:36:27.473Z,8.73
2022-10-09T07:38:56.373Z,10.57
2022-10-09T07:41:25.322Z,11.55
2022-10-09T07:43:51.994Z,9.15
2022-10-09T07:46:20.784Z,8.90
2022-10-09T07:48:47.923Z,8.75
2022-10-09T07:51:23.631Z,9.27
2022-10-09T07:53:50.910Z,11.20
2022-10-09T07:56:19.875Z,8.60
2022-10-09T07:58:51.293Z,9.88
2022-10-09T08:01:20.407Z,13.15
2022-10-09T08:03:48.124Z,8.35
2022-10-09T08:06:15.115Z,10.00
2022-10-09T08:08:42.489Z,7.75
2022-10-09T08:11:14.880Z,7.78
2022-10-09T08:13:43.078Z,9.82
2022-10-09T08:16:10.290Z,7.93
2022-10-09T08:18:37.403Z,5.82
2022-10-09T08:21:11.087Z,6.93
2022-10-09T08:23:37.820Z,6.47
2022-10-09T08:26:05.428Z,5.78
2022-10-09T08:28:32.155Z,5.15
2022-10-09T08:30:59.023Z,4.88
2022-10-09T08:33:26.080Z,5.90
2022-10-09T08:35:53.524Z,5.43
2022-10-09T08:38:45.554Z,5.57
2022-10-09T08:41:14.117Z,4.85
2022-10-09T08:43:45.456Z,5.32
2022-10-09T08:46:44.831Z,5.35
2022-10-09T08:49:26.114Z,4.90
2022-10-09T08:51:56.657Z,4.80
2022-10-09T08:54:38.357Z,4.45
2022-10-09T08:57:12.482Z,4.35
2022-10-09T08:59:39.261Z,4.07
2022-10-09T09:02:25.611Z,4.68
2022-10-09T09:05:27.260Z,5.28
2022-10-09T09:08:25.055Z,3.67
2022-10-09T09:11:00.501Z,4.80
2022-10-09T09:13:45.425Z,3.33
2022-10-09T09:16:19.095Z,4.38
2022-10-09T09:19:09.678Z,3.28
2022-10-09T09:21:53.215Z,3.33
2022-10-09T09:24:38.071Z,3.08
2022-10-09T09:27:13.153Z,11.15
2022-10-09T09:29:57.841Z,3.90
2022-10-09T09:32:28.006Z,3.35
2022-10-09T09:35:12.452Z,6.85
2022-10-09T09:37:39.088Z,3.58
2022-10-09T09:43:04.837Z,3.70
2022-10-09T09:45:31.846Z,5.75
2022-10-09T09:48:06.294Z,3.05
2022-10-09T09:50:50.470Z,3.85
2022-10-09T09:53:49.725Z,3.92
2022-10-09T09:56:17.626Z,3.83
2022-10-09T09:58:51.108Z,2.78
2022-10-09T10:01:25.605Z,3.28
2022-10-09T10:03:55.943Z,3.30
2022-10-09T10:06:45.854Z,3.30
2022-10-09T10:09:17.610Z,3.03
2022-10-09T10:12:04.063Z,4.40
2022-10-09T10:14:33.322Z,3.55
2022-10-09T10:17:02.068Z,3.28
2022-10-09T10:19:36.122Z,2.83
2022-10-09T10:22:06.525Z,3.20
2022-10-09T10:24:40.073Z,2.90
2022-10-09T10:27:25.295Z,5.30
2022-10-09T10:29:57.988Z,4.65
2022-10-09T10:32:24.614Z,5.85
2022-10-09T10:35:20.259Z,4.32
2022-10-09T10:38:06.359Z,3.53
2022-10-09T10:40:42.415Z,3.60
2022-10-09T10:43:42.415Z,4.10
2022-10-09T10:47:02.845Z,3.65
2022-10-09T10:49:33.673Z,3.95
2022-10-09T10:52:16.022Z,4.35
2022-10-09T10:54:53.347Z,3.63
2022-10-09T10:57:58.606Z,4.00
2022-10-09T11:00:27.853Z,2.80
2022-10-09T11:03:19.431Z,2.65
2022-10-09T11:06:05.551Z,3.55
2022-10-09T11:08:54.045Z,3.88
2022-10-09T11:11:33.891Z,2.85
2022-10-09T11:14:20.203Z,2.65
2022-10-09T11:17:00.373Z,3.22
2022-10-09T11:19:29.945Z,2.42
2022-10-09T11:22:20.984Z,3.20
2022-10-09T11:25:05.950Z,3.35
2022-10-09T11:28:03.546Z,4.57
2022-10-09T11:30:59.366Z,2.55
2022-10-09T11:33:46.905Z,2.65
2022-10-09T11:36:42.455Z,5.35
2022-10-09T11:39:20.542Z,2.65
2022-10-09T11:41:49.269Z,2.75
2022-10-09T11:44:50.090Z,2.90
2022-10-09T11:47:47.089Z,2.55
2022-10-09T11:50:18.445Z,2.30
2022-10-09T11:52:51.782Z,3.15
2022-10-09T11:55:31.085Z,2.45
2022-10-09T11:58:20.895Z,2.40
2022-10-09T12:00:50.808Z,2.58
2022-10-09T12:03:34.661Z,2.50
2022-10-09T12:06:14.899Z,2.45
2022-10-09T12:08:53.523Z,2.78
2022-10-09T12:11:20.932Z,2.83
2022-10-09T12:13:53.686Z,2.80
2022-10-09T12:16:42.151Z,3.00
2022-10-09T12:19:31.675Z,3.38
2022-10-09T12:22:06.295Z,2.72
2022-10-09T12:24:41.837Z,2.97
2022-10-09T12:27:13.087Z,2.40
2022-10-09T12:29:45.546Z,3.90
2022-10-09T12:32:35.556Z,3.40
2022-10-09T12:35:18.624Z,3.88
2022-10-09T12:37:45.555Z,4.25
2022-10-09T12:40:16.762Z,2.90
2022-10-09T12:42:44.881Z,2.65
2022-10-09T12:45:21.425Z,3.22
2022-10-09T12:47:48.842Z,2.92
2022-10-09T12:50:35.185Z,3.85
2022-10-09T12:53:17.831Z,2.35
2022-10-09T12:55:57.827Z,2.63
2022-10-09T12:58:26.756Z,2.50
2022-10-09T13:01:01.619Z,3.40
2022-10-09T13:03:44.069Z,3.60
2022-10-09T13:06:19.800Z,3.50
2022-10-09T13:08:54.247Z,3.35
2022-10-09T13:11:23.851Z,2.78
2022-10-09T13:13:55.029Z,2.83
2022-10-09T13:16:23.036Z,2.80
2022-10-09T13:19:01.073Z,3.15
2022-10-09T13:21:35.200Z,3.30
2022-10-09T13:24:10.272Z,2.75
2022-10-09T13:26:38.920Z,3.20
2022-10-09T13:29:07.175Z,2.72
2022-10-09T13:31:36.704Z,3.38
2022-10-09T13:34:13.848Z,7.25
2022-10-09T13:36:41.114Z,3.60
2022-10-09T13:39:14.055Z,3.40
2022-10-09T13:41:41.401Z,3.60
2022-10-09T13:44:08.311Z,3.50
2022-10-09T13:46:35.066Z,3.40
2022-10-09T13:49:01.770Z,3.20
2022-10-09T13:51:29.455Z,3.55
2022-10-09T13:53:56.155Z,3.30
2022-10-09T13:56:22.950Z,3.55
2022-10-09T13:58:49.653Z,3.88
2022-10-09T14:01:17.449Z,4.00
2022-10-09T14:03:44.085Z,3.88
2022-10-09T14:06:10.737Z,4.80
2022-10-09T14:08:37.513Z,3.90
2022-10-09T14:11:04.271Z,4.72
2022-10-09T14:13:30.960Z,4.35
2022-10-09T14:15:57.629Z,4.15
2022-10-09T14:18:24.497Z,5.10
2022-10-09T14:20:51.080Z,3.55
2022-10-09T14:23:17.707Z,3.90
2022-10-09T14:25:45.010Z,3.83
2022-10-09T14:28:11.832Z,3.97
2022-10-09T14:30:42.527Z,5.57
2022-10-09T14:33:09.989Z,5.88
2022-10-09T14:35:36.672Z,6.95
2022-10-09T14:38:03.412Z,7.03
2022-10-09T14:40:30.087Z,5.75
2022-10-09T14:42:57.047Z,5.45
2022-10-09T14:45:23.690Z,5.82
2022-10-09T14:47:50.308Z,6.28
2022-10-09T14:50:17.133Z,7.53
2022-10-09T14:52:44.740Z,6.38
2022-10-09T14:55:11.480Z,6.50
2022-10-09T14:57:38.189Z,6.40
2022-10-09T15:00:05.938Z,6.35
2022-10-09T15:02:32.744Z,6.65
2022-10-09T15:04:59.490Z,8.07
2022-10-09T15:07:28.244Z,7.65
2022-10-09T15:09:55.437Z,6.80
2022-10-09T15:12:22.141Z,7.70
2022-10-09T15:14:49.200Z,9.07
2022-10-09T15:17:15.835Z,8.13
2022-10-09T15:19:42.560Z,7.05
2022-10-09T15:22:09.510Z,7.60
2022-10-09T15:24:36.134Z,7.47
2022-10-09T15:27:02.708Z,8.40
2022-10-09T15:29:29.561Z,8.95
2022-10-09T15:31:56.240Z,8.80
2022-10-09T15:34:23.107Z,8.88
2022-10-09T15:36:49.735Z,8.73
2022-10-09T15:39:16.431Z,7.88
2022-10-09T15:41:43.671Z,8.43
2022-10-09T15:44:16.897Z,9.20
2022-10-09T15:46:44.729Z,9.18
2022-10-09T15:49:12.203Z,8.45
2022-10-09T15:51:39.564Z,9.13
2022-10-09T15:54:06.864Z,10.18
2022-10-09T15:56:37.438Z,10.55
2022-10-09T15:59:06.383Z,9.10
2022-10-09T16:01:33.203Z,10.93
2022-10-09T16:03:59.880Z,10.40
2022-10-09T16:06:26.560Z,9.60
2022-10-09T16:08:57.729Z,14.05
2022-10-09T16:11:26.412Z,9.93
2022-10-09T16:13:54.800Z,9.77
2022-10-09T16:16:24.139Z,11.68
2022-10-09T16:18:51.490Z,10.65
2022-10-09T16:21:24.209Z,10.88
2022-10-09T16:23:55.863Z,10.70
2022-10-09T16:26:26.093Z,12.30
2022-10-09T16:28:52.821Z,11.63
2022-10-09T16:31:26.071Z,11.65
2022-10-09T16:33:52.976Z,12.85
2022-10-09T16:36:19.756Z,12.32
2022-10-09T16:38:47.014Z,12.02
2022-10-09T16:41:18.024Z,12.05
2022-10-09T16:43:54.356Z,12.68
2022-10-09T16:46:24.329Z,11.95
2022-10-09T16:48:52.985Z,13.25
2022-10-09T16:51:23.568Z,13.55
2022-10-09T16:53:52.410Z,13.38
2022-10-09T16:56:23.366Z,13.05
2022-10-09T16:58:54.893Z,13.27
2022-10-09T17:01:21.867Z,13.52
2022-10-09T17:03:48.509Z,14.45
2022-10-09T17:06:23.863Z,14.77
2022-10-09T17:08:55.390Z,13.88
2022-10-09T17:11:22.957Z,14.40
2022-10-09T17:13:49.667Z,14.60
2022-10-09T17:16:19.635Z,13.57
2022-10-09T17:18:48.267Z,14.25
2022-10-09T17:21:18.643Z,13.85
2022-10-09T17:23:46.592Z,14.98
2022-10-09T17:26:18.839Z,14.95
2022-10-09T17:28:47.012Z,15.95
2022-10-09T17:31:16.442Z,14.68
2022-10-09T17:33:46.260Z,14.45
2022-10-09T17:36:19.039Z,14.73
2022-10-09T17:38:46.987Z,16.65
2022-10-09T17:41:16.930Z,16.67
2022-10-09T17:43:44.081Z,16.70
2022-10-09T17:46:10.961Z,16.90
2022-10-09T17:48:44.029Z,15.75
2022-10-09T17:51:16.327Z,16.50
2022-10-09T17:53:43.443Z,17.35
2022-10-09T17:56:10.616Z,14.85
2022-10-09T17:58:37.956Z,15.18
2022-10-09T18:01:10.020Z,15.88
2022-10-09T18:06:06.830Z,20.33
2022-10-09T18:08:34.500Z,16.98
2022-10-09T18:11:05.676Z,15.65
2022-10-09T18:13:32.675Z,17.00
2022-10-09T18:15:59.542Z,15.82
2022-10-09T18:18:26.282Z,15.77
2022-10-09T18:20:53.037Z,15.00
2022-10-09T18:23:22.757Z,14.15
2022-10-09T18:25:49.748Z,16.17
2022-10-09T18:28:16.678Z,14.98
2022-10-09T18:30:46.831Z,16.17
2022-10-09T18:33:13.506Z,15.18
2022-10-09T18:35:41.735Z,15.25
2022-10-09T18:38:09.565Z,14.90
2022-10-09T18:40:45.662Z,16.70
2022-10-09T18:43:14.371Z,14.95
2022-10-09T18:45:47.500Z,17.20
2022-10-09T18:48:16.192Z,15.65
2022-10-09T18:50:44.325Z,17.23
2022-10-09T18:53:11.868Z,17.45
2022-10-09T18:55:39.802Z,15.63
2022-10-09T18:58:06.672Z,16.02
2022-10-09T19:00:37.317Z,16.30
2022-10-09T19:03:04.298Z,15.93
2022-10-09T19:05:31.095Z,15.65
2022-10-09T19:07:58.205Z,15.90
2022-10-09T19:10:25.324Z,16.20
2022-10-09T19:12:52.760Z,16.33
2022-10-09T19:15:19.726Z,16.35
2022-10-09T19:17:46.674Z,15.75
2022-10-09T19:20:13.274Z,17.60
2022-10-09T19:22:40.655Z,17.67
2022-10-09T19:25:07.901Z,18.85
2022-10-09T19:27:34.706Z,16.70
2022-10-09T19:30:02.134Z,15.57
2022-10-09T19:32:29.054Z,16.98
2022-10-09T19:34:55.945Z,17.02
2022-10-09T19:37:27.397Z,15.85
2022-10-09T19:39:56.659Z,16.60
2022-10-09T19:42:24.815Z,16.77
2022-10-09T19:44:51.491Z,17.13
2022-10-09T19:47:19.500Z,18.02
2022-10-09T19:49:46.253Z,16.58
2022-10-09T19:52:13.333Z,17.92
2022-10-09T19:54:40.443Z,17.40
2022-10-09T19:57:07.398Z,18.58
2022-10-09T19:59:34.215Z,17.70
2022-10-09T20:02:01.125Z,16.42
2022-10-09T20:04:28.140Z,18.42
2022-10-09T20:06:55.476Z,17.73
2022-10-09T20:09:22.545Z,20.65
2022-10-09T20:11:49.965Z,19.23
2022-10-09T20:14:16.781Z,17.75
2022-10-09T20:16:44.167Z,17.95
2022-10-09T20:19:12.222Z,18.75
2022-10-09T20:21:39.170Z,18.75
2022-10-09T20:24:06.837Z,17.95
2022-10-09T20:26:33.723Z,16.30
2022-10-09T20:29:00.478Z,22.20
2022-10-09T20:31:28.189Z,17.50
2022-10-09T20:33:55.837Z,17.15
2022-10-09T20:36:22.566Z,16.30
2022-10-09T20:38:49.708Z,18.75
2022-10-09T20:41:16.981Z,20.80
2022-10-09T20:43:43.580Z,18.23
2022-10-09T20:46:13.706Z,17.38
2022-10-09T20:48:44.433Z,18.70
2022-10-09T20:51:11.087Z,18.15
2022-10-09T20:53:37.850Z,18.85
2022-10-09T20:56:09.889Z,17.95
2022-10-09T20:58:37.085Z,17.75
2022-10-09T21:01:06.241Z,20.33
2022-10-09T21:03:34.355Z,19.27
2022-10-09T21:06:05.556Z,18.20
2022-10-09T21:08:32.303Z,17.73
2022-10-09T21:10:59.875Z,18.77
2022-10-09T21:13:26.983Z,18.38
2022-10-09T21:15:53.867Z,17.80
2022-10-09T21:18:21.370Z,18.92
2022-10-09T21:20:49.409Z,18.95
2022-10-09T21:23:17.915Z,18.27
2022-10-09T21:25:52.517Z,17.45
2022-10-09T21:28:20.918Z,17.38
2022-10-09T21:30:48.103Z,16.83
2022-10-09T21:33:16.466Z,17.73
2022-10-09T21:35:46.065Z,17.98
2022-10-09T21:38:17.141Z,18.90
2022-10-09T21:40:45.031Z,17.17
2022-10-09T21:43:12.701Z,17.63
2022-10-09T21:45:40.255Z,19.90
2022-10-09T21:48:07.847Z,19.25
2022-10-09T21:50:36.687Z,18.58
2022-10-09T21:53:04.279Z,18.35
2022-10-09T21:55:31.220Z,18.40
2022-10-09T21:57:58.114Z,17.75
2022-10-09T22:00:24.991Z,19.02
2022-10-09T22:02:52.141Z,18.40
2022-10-09T22:05:19.276Z,19.25
2022-10-09T22:07:46.019Z,21.42
2022-10-09T22:10:12.844Z,20.42
2022-10-09T22:12:39.821Z,20.15
2022-10-09T22:15:07.073Z,20.45
2022-10-09T22:17:34.154Z,21.77
2022-10-09T22:20:00.929Z,20.25
2022-10-09T22:22:27.805Z,21.92
2022-10-09T22:24:54.491Z,21.55
2022-10-09T22:27:21.153Z,21.60
2022-10-09T22:29:47.966Z,21.20
2022-10-09T22:32:14.640Z,21.30
2022-10-09T22:34:41.272Z,20.70
2022-10-09T22:37:08.088Z,21.75
2022-10-09T22:39:34.956Z,19.95
2022-10-09T22:42:01.593Z,20.17
2022-10-09T22:44:28.616Z,21.52
2022-10-09T22:46:55.323Z,21.92
2022-10-09T22:49:22.154Z,21.35
2022-10-09T22:51:49.112Z,21.50
2022-10-09T22:54:15.999Z,23.40
2022-10-09T22:56:45.025Z,21.50
2022-10-09T22:59:14.631Z,23.65
2022-10-09T23:01:49.119Z,22.35
2022-10-09T23:04:17.439Z,22.50
2022-10-09T23:06:44.931Z,23.70
2022-10-09T23:09:14.564Z,23.70
2022-10-09T23:11:42.030Z,24.30
2022-10-09T23:14:08.864Z,22.48
2022-10-09T23:16:35.715Z,23.17
2022-10-09T23:19:06.673Z,22.70
2022-10-09T23:21:35.331Z,21.38
2022-10-09T23:24:02.403Z,22.13
2022-10-09T23:26:31.489Z,23.35
2022-10-09T23:29:02.770Z,22.65
2022-10-09T23:31:29.862Z,21.90
2022-10-09T23:33:57.599Z,22.00
2022-10-09T23:36:27.107Z,21.02
2022-10-09T23:38:55.121Z,20.20
2022-10-09T23:41:24.128Z,23.88
2022-10-09T23:43:51.805Z,23.38
2022-10-09T23:46:20.878Z,23.10
2022-10-09T23:48:49.230Z,23.23
2022-10-09T23:51:17.036Z,24.02
2022-10-09T23:53:44.247Z,26.30
2022-10-09T23:56:23.427Z,26.33
2022-10-09T23:58:51.103Z,26.98
